createdAt,value
2019-01-04T00:00:56.208Z,-4.26
2019-01-04T00:03:27.613Z,-4.28
2019-01-04T00:05:58.799Z,-4.24
2019-01-04T00:08:30.309Z,-4.27
2019-01-04T00:11:01.526Z,-4.25
2019-01-04T00:13:32.680Z,-4.28
2019-01-04T00:16:03.683Z,-4.27
2019-01-04T00:18:34.844Z,-4.26
2019-01-04T00:21:06.828Z,-4.33
2019-01-04T00:23:38.071Z,-4.31
2019-01-04T00:26:09.225Z,-4.31
2019-01-04T00:28:40.421Z,-4.33
2019-01-04T00:31:11.395Z,-4.33
2019-01-04T00:33:42.618Z,-4.37
2019-01-04T00:36:14.146Z,-4.37
2019-01-04T00:38:46.711Z,-4.36
2019-01-04T00:41:18.955Z,-4.36
2019-01-04T00:43:50.514Z,-4.37
2019-01-04T00:46:21.665Z,-4.38
2019-01-04T00:48:52.974Z,-4.37
2019-01-04T00:51:24.078Z,-4.37
2019-01-04T00:53:55.856Z,-4.34
2019-01-04T00:57:10.894Z,-4.34
2019-01-04T01:00:08.149Z,-4.33
2019-01-04T01:03:37.981Z,-4.32
2019-01-04T01:06:52.832Z,-4.30
2019-01-04T01:10:07.269Z,-4.32
2019-01-04T01:13:16.507Z,-4.30
2019-01-04T01:16:18.487Z,-4.22
2019-01-04T01:19:33.058Z,-4.27
2019-01-04T01:22:58.967Z,-4.25
2019-01-04T01:26:07.979Z,-4.30
2019-01-04T01:29:16.029Z,-4.29
2019-01-04T01:32:22.784Z,-4.31
2019-01-04T01:35:29.752Z,-4.31
2019-01-04T01:38:36.873Z,-4.34
2019-01-04T01:42:01.353Z,-4.35
2019-01-04T01:45:08.852Z,-4.32
2019-01-04T01:47:48.698Z,-4.32
2019-01-04T01:51:04.097Z,-4.33
2019-01-04T01:53:47.188Z,-4.34
2019-01-04T01:56:18.324Z,-4.31
2019-01-04T01:58:49.620Z,-4.32
2019-01-04T02:01:20.870Z,-4.32
2019-01-04T02:03:52.325Z,-4.30
2019-01-04T02:06:23.627Z,-4.34
2019-01-04T02:08:55.043Z,-4.28
2019-01-04T02:11:26.164Z,-4.34
2019-01-04T02:13:57.536Z,-4.33
2019-01-04T02:16:28.779Z,-4.30
2019-01-04T02:19:00.068Z,-4.30
2019-01-04T02:21:31.323Z,-4.28
2019-01-04T02:24:02.662Z,-4.26
2019-01-04T02:26:34.979Z,-4.29
2019-01-04T02:29:06.256Z,-4.31
2019-01-04T02:31:37.574Z,-4.35
2019-01-04T02:34:08.791Z,-4.31
2019-01-04T02:36:40.042Z,-4.30
2019-01-04T02:39:11.045Z,-4.30
2019-01-04T02:41:42.193Z,-4.35
2019-01-04T02:44:13.239Z,-4.31
2019-01-04T02:46:44.389Z,-4.31
2019-01-04T02:49:15.524Z,-4.28
2019-01-04T02:51:46.622Z,-4.33
2019-01-04T02:54:18.205Z,-4.37
2019-01-04T02:56:49.452Z,-4.39
2019-01-04T02:59:20.572Z,-4.42
2019-01-04T03:01:54.377Z,-4.42
2019-01-04T03:04:25.393Z,-4.50
2019-01-04T03:06:56.705Z,-4.52
2019-01-04T03:09:27.793Z,-4.49
2019-01-04T03:11:59.041Z,-4.49
2019-01-04T03:14:31.731Z,-4.53
2019-01-04T03:17:03.328Z,-4.52
2019-01-04T03:19:34.706Z,-4.49
2019-01-04T03:22:06.127Z,-4.50
2019-01-04T03:24:37.601Z,-4.50
2019-01-04T03:27:08.631Z,-4.51
2019-01-04T03:29:39.980Z,-4.50
2019-01-04T03:32:11.227Z,-4.57
2019-01-04T03:34:42.574Z,-4.54
2019-01-04T03:37:13.888Z,-4.52
2019-01-04T03:39:45.038Z,-4.56
2019-01-04T03:42:16.348Z,-4.54
2019-01-04T03:44:47.338Z,-4.53
2019-01-04T03:47:18.554Z,-4.53
2019-01-04T03:49:49.816Z,-4.52
2019-01-04T03:52:21.060Z,-4.53
2019-01-04T03:54:52.149Z,-4.53
2019-01-04T03:57:23.398Z,-4.54
2019-01-04T03:59:54.742Z,-4.61
2019-01-04T04:02:25.942Z,-4.58
2019-01-04T04:04:57.236Z,-4.67
2019-01-04T04:07:28.783Z,-4.63
2019-01-04T04:10:00.221Z,-4.63
2019-01-04T04:12:31.376Z,-4.65
2019-01-04T04:15:02.514Z,-4.58
2019-01-04T04:17:33.684Z,-4.52
2019-01-04T04:20:06.559Z,-4.53
2019-01-04T04:22:38.613Z,-4.51
2019-01-04T04:25:09.629Z,-4.54
2019-01-04T04:27:41.251Z,-4.53
2019-01-04T04:30:12.433Z,-4.58
2019-01-04T04:32:44.637Z,-4.58
2019-01-04T04:35:16.410Z,-4.56
2019-01-04T04:37:47.513Z,-4.55
2019-01-04T04:40:18.757Z,-4.59
2019-01-04T04:42:50.018Z,-4.61
2019-01-04T04:45:21.484Z,-4.63
2019-01-04T04:47:52.581Z,-4.62
2019-01-04T04:50:23.816Z,-4.64
2019-01-04T04:52:55.009Z,-4.64
2019-01-04T04:55:26.140Z,-4.66
2019-01-04T04:57:59.671Z,-4.68
2019-01-04T05:00:31.003Z,-4.65
2019-01-04T05:03:02.517Z,-4.63
2019-01-04T05:05:34.778Z,-4.61
2019-01-04T05:08:06.059Z,-4.59
2019-01-04T05:10:37.204Z,-4.65
2019-01-04T05:13:08.527Z,-4.61
2019-01-04T05:15:40.234Z,-4.66
2019-01-04T05:18:11.345Z,-4.58
2019-01-04T05:20:43.159Z,-4.63
2019-01-04T05:23:15.799Z,-4.63
2019-01-04T05:25:46.999Z,-4.67
2019-01-04T05:28:18.087Z,-4.70
2019-01-04T05:30:50.960Z,-4.73
2019-01-04T05:33:22.340Z,-4.75
2019-01-04T05:35:54.152Z,-4.75
2019-01-04T05:38:25.328Z,-4.78
2019-01-04T05:40:56.661Z,-4.84
2019-01-04T05:43:28.161Z,-4.86
2019-01-04T05:45:59.405Z,-4.85
2019-01-04T05:48:31.859Z,-4.85
2019-01-04T05:51:03.070Z,-4.81
2019-01-04T05:53:36.044Z,-4.79
2019-01-04T05:56:07.308Z,-4.73
2019-01-04T05:58:38.327Z,-4.80
2019-01-04T06:01:09.897Z,-4.75
2019-01-04T06:03:41.011Z,-4.74
2019-01-04T06:06:12.481Z,-4.67
2019-01-04T06:08:43.610Z,-4.68
2019-01-04T06:11:15.778Z,-4.75
2019-01-04T06:13:47.180Z,-4.75
2019-01-04T06:16:18.220Z,-4.72
2019-01-04T06:18:51.837Z,-4.76
2019-01-04T06:21:23.057Z,-4.70
2019-01-04T06:23:54.405Z,-4.69
2019-01-04T06:26:26.011Z,-4.75
2019-01-04T06:28:57.134Z,-4.79
2019-01-04T06:31:28.368Z,-4.79
2019-01-04T06:33:59.376Z,-4.85
2019-01-04T06:36:30.636Z,-4.89
2019-01-04T06:39:01.772Z,-4.94
2019-01-04T06:41:34.011Z,-4.96
2019-01-04T06:44:05.955Z,-5.00
2019-01-04T06:46:58.570Z,-5.08
2019-01-04T06:49:29.976Z,-5.08
2019-01-04T06:52:01.035Z,-5.10
2019-01-04T06:55:07.734Z,-5.11
2019-01-04T06:57:39.213Z,-5.09
2019-01-04T07:00:10.327Z,-5.10
2019-01-04T07:02:41.591Z,-5.11
2019-01-04T07:05:13.345Z,-5.09
2019-01-04T07:07:44.711Z,-5.08
2019-01-04T07:10:16.155Z,-5.09
2019-01-04T07:12:47.683Z,-5.09
2019-01-04T07:15:19.024Z,-5.05
2019-01-04T07:17:50.560Z,-5.01
2019-01-04T07:20:21.973Z,-5.02
2019-01-04T07:22:53.421Z,-4.92
2019-01-04T07:25:24.831Z,-4.88
2019-01-04T07:27:56.253Z,-4.89
2019-01-04T07:30:27.456Z,-4.90
2019-01-04T07:32:59.255Z,-4.80
2019-01-04T07:35:31.648Z,-4.78
2019-01-04T07:38:03.725Z,-4.66
2019-01-04T07:40:34.857Z,-4.54
2019-01-04T07:43:06.262Z,-4.61
2019-01-04T07:45:37.447Z,-4.59
2019-01-04T07:48:08.667Z,-4.54
2019-01-04T07:50:39.740Z,-4.53
2019-01-04T07:53:10.867Z,-4.46
2019-01-04T07:55:42.148Z,-4.43
2019-01-04T07:58:13.404Z,-4.35
2019-01-04T08:00:45.769Z,-4.37
2019-01-04T08:03:22.163Z,-4.32
2019-01-04T08:05:55.261Z,-4.29
2019-01-04T08:08:26.720Z,-4.32
2019-01-04T08:10:58.299Z,-4.26
2019-01-04T08:13:32.139Z,-4.32
2019-01-04T08:16:03.514Z,-4.29
2019-01-04T08:18:35.167Z,-4.23
2019-01-04T08:21:06.491Z,-4.31
2019-01-04T08:23:37.869Z,-4.25
2019-01-04T08:26:09.043Z,-4.28
2019-01-04T08:28:40.407Z,-4.34
2019-01-04T08:31:12.622Z,-4.27
2019-01-04T08:33:44.768Z,-4.28
2019-01-04T08:36:15.869Z,-4.15
2019-01-04T08:38:47.511Z,-4.10
2019-01-04T08:41:18.677Z,-4.16
2019-01-04T08:43:49.812Z,-4.11
2019-01-04T08:46:21.435Z,-4.11
2019-01-04T08:48:53.243Z,-4.15
2019-01-04T08:51:24.318Z,-4.15
2019-01-04T08:54:03.857Z,-4.02
2019-01-04T08:56:36.846Z,-4.02
2019-01-04T08:59:07.881Z,-3.94
2019-01-04T09:01:39.243Z,-3.93
2019-01-04T09:04:10.327Z,-4.02
2019-01-04T09:06:41.356Z,-3.88
2019-01-04T09:09:14.060Z,-3.79
2019-01-04T09:11:45.156Z,-3.73
2019-01-04T09:14:17.308Z,-3.71
2019-01-04T09:16:48.351Z,-3.73
2019-01-04T09:19:19.651Z,-3.66
2019-01-04T09:21:50.677Z,-3.57
2019-01-04T09:24:22.025Z,-3.43
2019-01-04T09:26:53.340Z,-3.50
2019-01-04T09:29:24.749Z,-3.49
2019-01-04T09:31:55.982Z,-3.54
2019-01-04T09:34:27.420Z,-3.54
2019-01-04T09:36:58.611Z,-3.36
2019-01-04T09:39:30.647Z,-3.47
2019-01-04T09:42:16.243Z,-3.38
2019-01-04T09:44:48.079Z,-3.37
2019-01-04T09:47:19.429Z,-3.23
2019-01-04T09:49:51.854Z,-3.19
2019-01-04T09:52:22.978Z,-3.13
2019-01-04T09:54:54.294Z,-3.11
2019-01-04T09:57:26.097Z,-3.06
2019-01-04T09:59:57.267Z,-3.07
2019-01-04T10:02:28.797Z,-3.04
2019-01-04T10:05:00.430Z,-2.96
2019-01-04T10:07:31.466Z,-3.11
2019-01-04T10:10:03.697Z,-3.05
2019-01-04T10:12:35.116Z,-2.91
2019-01-04T10:15:07.400Z,-2.87
2019-01-04T10:17:38.824Z,-2.95
2019-01-04T10:20:10.987Z,-2.96
2019-01-04T10:22:43.355Z,-2.82
2019-01-04T10:25:14.691Z,-2.67
2019-01-04T10:27:45.853Z,-2.59
2019-01-04T10:30:35.473Z,-2.57
2019-01-04T10:33:06.812Z,-2.60
2019-01-04T10:35:38.349Z,-2.64
2019-01-04T10:38:09.568Z,-2.59
2019-01-04T10:40:41.351Z,-2.50
2019-01-04T10:43:12.460Z,-2.49
2019-01-04T10:45:44.785Z,-2.46
2019-01-04T10:48:16.027Z,-2.56
2019-01-04T10:50:48.198Z,-2.59
2019-01-04T10:53:19.286Z,-2.63
2019-01-04T10:55:50.532Z,-2.51
2019-01-04T10:58:21.920Z,-2.49
2019-01-04T11:00:53.119Z,-2.47
2019-01-04T11:03:24.199Z,-2.37
2019-01-04T11:05:55.440Z,-2.26
2019-01-04T11:08:26.608Z,-2.45
2019-01-04T11:10:57.792Z,-2.61
2019-01-04T11:13:28.926Z,-2.47
2019-01-04T11:16:00.205Z,-2.44
2019-01-04T11:18:31.821Z,-2.55
2019-01-04T11:21:06.028Z,-2.57
2019-01-04T11:24:14.107Z,-2.67
2019-01-04T11:26:58.509Z,-2.55
2019-01-04T11:30:08.866Z,-2.59
2019-01-04T11:32:53.719Z,-2.55
2019-01-04T11:36:20.879Z,-2.54
2019-01-04T11:39:31.352Z,-2.43
2019-01-04T11:42:30.807Z,-2.47
2019-01-04T11:45:26.026Z,-2.46
2019-01-04T11:48:10.424Z,-2.45
2019-01-04T11:50:55.086Z,-2.58
2019-01-04T11:53:26.210Z,-2.59
2019-01-04T11:55:57.344Z,-2.58
2019-01-04T11:58:28.715Z,-2.65
2019-01-04T12:01:00.444Z,-2.70
2019-01-04T12:03:32.348Z,-2.67
2019-01-04T12:06:05.072Z,-2.12
2019-01-04T12:08:36.149Z,-1.55
2019-01-04T12:11:07.738Z,-1.46
2019-01-04T12:13:39.065Z,-1.91
2019-01-04T12:16:10.555Z,-2.06
2019-01-04T12:18:44.075Z,-2.30
2019-01-04T12:21:15.542Z,-2.07
2019-01-04T12:23:47.015Z,-2.23
2019-01-04T12:26:18.963Z,-2.34
2019-01-04T12:28:50.341Z,-2.32
2019-01-04T12:31:23.272Z,-2.32
2019-01-04T12:33:55.971Z,-2.45
2019-01-04T12:36:27.253Z,-2.39
2019-01-04T12:38:58.561Z,-2.33
2019-01-04T12:41:29.699Z,-2.55
2019-01-04T12:44:02.342Z,-2.57
2019-01-04T12:46:33.415Z,-2.60
2019-01-04T12:49:05.732Z,-2.58
2019-01-04T12:51:36.938Z,-2.50
2019-01-04T12:54:08.470Z,-2.64
2019-01-04T12:56:39.477Z,-2.70
2019-01-04T12:59:11.101Z,-2.54
2019-01-04T13:01:42.591Z,-2.58
2019-01-04T13:04:13.669Z,-2.58
2019-01-04T13:06:44.681Z,-2.58
2019-01-04T13:09:15.836Z,-2.53
2019-01-04T13:11:47.238Z,-2.51
2019-01-04T13:14:18.979Z,-2.54
2019-01-04T13:16:50.341Z,-2.58
2019-01-04T13:19:25.626Z,-2.52
2019-01-04T13:21:55.408Z,-2.45
2019-01-04T13:24:28.700Z,-2.37
2019-01-04T13:27:00.826Z,-2.41
2019-01-04T13:29:32.200Z,-2.32
2019-01-04T13:32:03.933Z,-2.50
2019-01-04T13:34:37.057Z,-2.55
2019-01-04T13:37:09.675Z,-2.55
2019-01-04T13:39:40.991Z,-2.76
2019-01-04T13:42:12.100Z,-2.67
2019-01-04T13:44:43.547Z,-2.60
2019-01-04T13:47:16.250Z,-2.80
2019-01-04T13:49:47.514Z,-2.82
2019-01-04T13:52:19.684Z,-2.93
2019-01-04T13:54:50.952Z,-3.02
2019-01-04T13:57:22.128Z,-2.97
2019-01-04T13:59:53.433Z,-2.96
2019-01-04T14:02:24.535Z,-3.10
2019-01-04T14:04:55.800Z,-3.07
2019-01-04T14:07:27.118Z,-3.14
2019-01-04T14:09:58.252Z,-3.13
2019-01-04T14:12:29.658Z,-3.13
2019-01-04T14:15:00.906Z,-3.12
2019-01-04T14:17:32.638Z,-3.08
2019-01-04T14:20:04.128Z,-3.17
2019-01-04T14:22:37.528Z,-3.12
2019-01-04T14:25:09.335Z,-3.14
2019-01-04T14:27:40.612Z,-3.14
2019-01-04T14:30:13.069Z,-3.11
2019-01-04T14:32:44.120Z,-3.21
2019-01-04T14:35:15.600Z,-3.14
2019-01-04T14:37:46.741Z,-3.14
2019-01-04T14:40:17.841Z,-3.23
2019-01-04T14:42:48.849Z,-3.23
2019-01-04T14:45:20.294Z,-3.26
2019-01-04T14:47:51.507Z,-3.17
2019-01-04T14:50:22.691Z,-3.25
2019-01-04T14:52:54.034Z,-3.29
2019-01-04T14:55:26.486Z,-3.21
2019-01-04T14:57:58.023Z,-3.23
2019-01-04T15:00:29.643Z,-3.32
2019-01-04T15:03:02.312Z,-3.32
2019-01-04T15:05:33.833Z,-3.36
2019-01-04T15:08:06.285Z,-3.42
2019-01-04T15:10:37.754Z,-3.43
2019-01-04T15:13:09.021Z,-3.51
2019-01-04T15:15:40.408Z,-3.55
2019-01-04T15:18:11.453Z,-3.51
2019-01-04T15:20:42.798Z,-3.49
2019-01-04T15:23:14.075Z,-3.60
2019-01-04T15:25:45.440Z,-3.54
2019-01-04T15:28:16.674Z,-3.55
2019-01-04T15:30:48.920Z,-3.60
2019-01-04T15:33:21.114Z,-3.58
2019-01-04T15:35:52.300Z,-3.60
2019-01-04T15:38:23.499Z,-3.59
2019-01-04T15:40:54.699Z,-3.56
2019-01-04T15:43:27.117Z,-3.49
2019-01-04T15:45:58.699Z,-3.53
2019-01-04T15:48:30.112Z,-3.55
2019-01-04T15:51:01.344Z,-3.51
2019-01-04T15:53:32.649Z,-3.53
2019-01-04T15:56:03.903Z,-3.53
2019-01-04T15:58:35.081Z,-3.54
2019-01-04T16:01:06.495Z,-3.62
2019-01-04T16:03:37.824Z,-3.56
2019-01-04T16:06:08.975Z,-3.59
2019-01-04T16:08:40.089Z,-3.54
2019-01-04T16:11:11.312Z,-3.58
2019-01-04T16:13:42.960Z,-3.64
2019-01-04T16:16:14.717Z,-3.62
2019-01-04T16:18:46.209Z,-3.71
2019-01-04T16:21:19.011Z,-3.78
2019-01-04T16:23:50.522Z,-3.77
2019-01-04T16:26:22.225Z,-3.73
2019-01-04T16:28:53.784Z,-3.77
2019-01-04T16:31:25.121Z,-3.78
2019-01-04T16:33:56.585Z,-3.81
2019-01-04T16:36:28.048Z,-3.78
2019-01-04T16:38:59.373Z,-3.81
2019-01-04T16:41:30.766Z,-3.77
2019-01-04T16:44:07.263Z,-3.78
2019-01-04T16:46:35.036Z,-3.77
2019-01-04T16:49:06.369Z,-3.77
2019-01-04T16:51:37.818Z,-3.73
2019-01-04T16:54:08.803Z,-3.84
2019-01-04T16:56:41.298Z,-3.85
2019-01-04T16:59:13.828Z,-3.88
2019-01-04T17:01:45.117Z,-3.86
2019-01-04T17:04:16.397Z,-3.76
2019-01-04T17:06:47.648Z,-3.80
2019-01-04T17:09:19.000Z,-3.87
2019-01-04T17:11:50.389Z,-3.80
2019-01-04T17:14:22.273Z,-3.83
2019-01-04T17:16:53.503Z,-3.78
2019-01-04T17:19:24.906Z,-3.74
2019-01-04T17:21:56.081Z,-3.83
2019-01-04T17:24:27.483Z,-3.80
2019-01-04T17:26:58.723Z,-3.78
2019-01-04T17:29:29.783Z,-3.87
2019-01-04T17:32:01.784Z,-3.82
2019-01-04T17:34:33.010Z,-3.87
2019-01-04T17:37:04.230Z,-3.83
2019-01-04T17:39:35.533Z,-3.90
2019-01-04T17:42:07.212Z,-3.87
2019-01-04T17:44:38.575Z,-3.85
2019-01-04T17:47:10.222Z,-3.81
2019-01-04T17:49:41.573Z,-3.88
2019-01-04T17:52:13.078Z,-3.87
2019-01-04T17:54:44.439Z,-3.85
2019-01-04T17:57:17.420Z,-3.81
2019-01-04T17:59:48.573Z,-3.83
2019-01-04T18:02:20.892Z,-3.78
2019-01-04T18:04:53.435Z,-3.83
2019-01-04T18:07:25.016Z,-3.78
2019-01-04T18:09:56.162Z,-3.78
2019-01-04T18:12:28.107Z,-3.76
2019-01-04T18:14:59.454Z,-3.79
2019-01-04T18:17:30.669Z,-3.78
2019-01-04T18:20:01.889Z,-3.70
2019-01-04T18:22:33.335Z,-3.74
2019-01-04T18:25:04.958Z,-3.71
2019-01-04T18:27:36.137Z,-3.71
2019-01-04T18:30:08.917Z,-3.73
2019-01-04T18:32:40.223Z,-3.65
2019-01-04T18:35:11.470Z,-3.65
2019-01-04T18:37:43.038Z,-3.67
2019-01-04T18:40:14.031Z,-3.62
2019-01-04T18:42:45.398Z,-3.65
2019-01-04T18:45:16.680Z,-3.65
2019-01-04T18:47:48.041Z,-3.69
2019-01-04T18:50:22.542Z,-3.70
2019-01-04T18:52:53.688Z,-3.65
2019-01-04T18:55:24.807Z,-3.68
2019-01-04T18:57:56.894Z,-3.75
2019-01-04T19:00:28.049Z,-3.70
2019-01-04T19:02:59.178Z,-3.70
2019-01-04T19:05:30.296Z,-3.68
2019-01-04T19:08:02.441Z,-3.67
2019-01-04T19:10:33.716Z,-3.68
2019-01-04T19:13:06.058Z,-3.60
2019-01-04T19:15:37.168Z,-3.62
2019-01-04T19:18:08.343Z,-3.59
2019-01-04T19:20:39.368Z,-3.53
2019-01-04T19:23:10.657Z,-3.57
2019-01-04T19:25:41.882Z,-3.43
2019-01-04T19:28:13.361Z,-3.48
2019-01-04T19:30:44.558Z,-3.43
2019-01-04T19:33:15.911Z,-3.44
2019-01-04T19:35:47.322Z,-3.41
2019-01-04T19:38:18.697Z,-3.40
2019-01-04T19:40:52.425Z,-3.46
2019-01-04T19:43:23.799Z,-3.44
2019-01-04T19:45:55.403Z,-3.44
2019-01-04T19:48:26.857Z,-3.45
2019-01-04T19:50:58.068Z,-3.39
2019-01-04T19:53:29.297Z,-3.29
2019-01-04T19:56:00.457Z,-3.35
2019-01-04T19:58:31.463Z,-3.33
2019-01-04T20:01:02.697Z,-3.32
2019-01-04T20:03:33.937Z,-3.35
2019-01-04T20:07:08.925Z,-3.30
2019-01-04T20:10:51.574Z,-3.33
2019-01-04T20:14:23.450Z,-3.31
2019-01-04T20:17:11.844Z,-3.36
2019-01-04T20:20:12.654Z,-3.35
2019-01-04T20:23:01.723Z,-3.29
2019-01-04T20:25:50.574Z,-3.26
2019-01-04T20:28:40.280Z,-3.23
2019-01-04T20:31:42.369Z,-3.22
2019-01-04T20:34:31.541Z,-3.20
2019-01-04T20:37:39.532Z,-3.25
2019-01-04T20:40:35.321Z,-3.20
2019-01-04T20:43:34.351Z,-3.18
2019-01-04T20:46:23.801Z,-3.12
2019-01-04T20:49:26.538Z,-3.14
2019-01-04T20:52:12.277Z,-3.05
2019-01-04T20:55:17.720Z,-3.09
2019-01-04T20:58:07.876Z,-3.04
2019-01-04T21:00:56.868Z,-2.97
2019-01-04T21:03:47.531Z,-3.02
2019-01-04T21:06:33.430Z,-2.92
2019-01-04T21:09:23.301Z,-2.91
2019-01-04T21:12:14.443Z,-2.79
2019-01-04T21:15:02.688Z,-2.83
2019-01-04T21:18:03.980Z,-2.87
2019-01-04T21:20:51.017Z,-2.80
2019-01-04T21:23:32.515Z,-2.84
2019-01-04T21:26:23.799Z,-2.84
2019-01-04T21:29:12.486Z,-2.83
2019-01-04T21:32:11.667Z,-2.82
2019-01-04T21:35:11.119Z,-2.78
2019-01-04T21:38:00.418Z,-2.72
2019-01-04T21:40:49.391Z,-2.82
2019-01-04T21:43:44.552Z,-2.80
2019-01-04T21:46:33.523Z,-2.76
2019-01-04T21:49:24.508Z,-2.76
2019-01-04T21:52:14.581Z,-2.69
2019-01-04T21:55:10.726Z,-2.68
2019-01-04T21:57:59.346Z,-2.69
2019-01-04T22:00:48.378Z,-2.69
2019-01-04T22:03:50.606Z,-2.69
2019-01-04T22:06:39.423Z,-2.64
2019-01-04T22:09:31.029Z,-2.59
2019-01-04T22:12:24.321Z,-2.61
2019-01-04T22:15:13.667Z,-2.62
2019-01-04T22:18:01.218Z,-2.58
2019-01-04T22:20:54.075Z,-2.62
2019-01-04T22:23:59.411Z,-2.59
2019-01-04T22:26:52.329Z,-2.57
2019-01-04T22:29:43.277Z,-2.53
2019-01-04T22:32:39.452Z,-2.48
2019-01-04T22:35:31.665Z,-2.49
2019-01-04T22:38:14.322Z,-2.45
2019-01-04T22:41:03.398Z,-2.46
2019-01-04T22:44:06.091Z,-2.46
2019-01-04T22:46:56.719Z,-2.46
2019-01-04T22:49:49.928Z,-2.44
2019-01-04T22:52:38.993Z,-2.39
2019-01-04T22:55:28.408Z,-2.37
2019-01-04T22:58:21.573Z,-2.40
2019-01-04T23:01:10.998Z,-2.33
2019-01-04T23:03:55.589Z,-2.32
2019-01-04T23:06:44.919Z,-2.33
2019-01-04T23:09:37.912Z,-2.34
2019-01-04T23:12:31.154Z,-2.34
2019-01-04T23:15:20.066Z,-2.34
2019-01-04T23:18:09.266Z,-2.29
2019-01-04T23:21:09.651Z,-2.29
2019-01-04T23:23:58.775Z,-2.30
2019-01-04T23:27:04.517Z,-2.30
2019-01-04T23:29:58.649Z,-2.31
2019-01-04T23:32:47.606Z,-2.28
2019-01-04T23:35:46.892Z,-2.21
2019-01-04T23:38:35.532Z,-2.21
2019-01-04T23:41:25.063Z,-2.22
2019-01-04T23:44:21.428Z,-2.21
2019-01-04T23:47:12.334Z,-2.16
2019-01-04T23:50:01.533Z,-2.17
2019-01-04T23:52:51.655Z,-2.17
2019-01-04T23:55:38.432Z,-2.16
2019-01-04T23:58:27.733Z,-2.11
